sensor_id;sensor_type;location;lat;lon;timestamp;P1;durP1;ratioP1;P2;durP2;ratioP2
75169;SDS011;63749;49.186;9.222;2023-10-09T00:00:56;13.77;;;7.47;;
75169;SDS011;63749;49.186;9.222;2023-10-09T00:03:37;17.40;;;7.97;;
75169;SDS011;63749;49.186;9.222;2023-10-09T00:06:03;18.30;;;8.07;;
75169;SDS011;63749;49.186;9.222;2023-10-09T00:08:29;16.42;;;7.93;;
75169;SDS011;63749;49.186;9.222;2023-10-09T00:10:58;15.77;;;7.95;;
75169;SDS011;63749;49.186;9.222;2023-10-09T00:13:39;14.93;;;8.20;;
75169;SDS011;63749;49.186;9.222;2023-10-09T00:16:14;15.60;;;7.27;;
75169;SDS011;63749;49.186;9.222;2023-10-09T00:19:03;15.60;;;7.82;;
75169;SDS011;63749;49.186;9.222;2023-10-09T00:21:41;20.05;;;7.82;;
75169;SDS011;63749;49.186;9.222;2023-10-09T00:24:11;17.70;;;7.75;;
75169;SDS011;63749;49.186;9.222;2023-10-09T00:26:44;19.38;;;7.93;;
75169;SDS011;63749;49.186;9.222;2023-10-09T00:29:11;16.50;;;7.93;;
75169;SDS011;63749;49.186;9.222;2023-10-09T00:31:41;19.13;;;8.52;;
75169;SDS011;63749;49.186;9.222;2023-10-09T00:34:15;16.33;;;8.15;;
75169;SDS011;63749;49.186;9.222;2023-10-09T00:36:47;20.38;;;8.40;;
75169;SDS011;63749;49.186;9.222;2023-10-09T00:39:16;19.77;;;8.70;;
75169;SDS011;63749;49.186;9.222;2023-10-09T00:42:06;18.57;;;8.93;;
75169;SDS011;63749;49.186;9.222;2023-10-09T00:44:32;19.30;;;9.13;;
75169;SDS011;63749;49.186;9.222;2023-10-09T00:47:13;19.33;;;9.35;;
75169;SDS011;63749;49.186;9.222;2023-10-09T00:49:48;23.42;;;9.55;;
75169;SDS011;63749;49.186;9.222;2023-10-09T00:52:15;18.25;;;9.05;;
75169;SDS011;63749;49.186;9.222;2023-10-09T00:54:54;19.37;;;8.50;;
75169;SDS011;63749;49.186;9.222;2023-10-09T00:57:25;16.35;;;8.80;;
75169;SDS011;63749;49.186;9.222;2023-10-09T00:59:54;17.30;;;8.68;;
75169;SDS011;63749;49.186;9.222;2023-10-09T01:02:26;19.27;;;9.57;;
75169;SDS011;63749;49.186;9.222;2023-10-09T01:05:01;17.50;;;8.90;;
75169;SDS011;63749;49.186;9.222;2023-10-09T01:07:37;17.27;;;9.07;;
75169;SDS011;63749;49.186;9.222;2023-10-09T01:10:05;16.40;;;8.18;;
75169;SDS011;63749;49.186;9.222;2023-10-09T01:12:34;17.27;;;8.27;;
75169;SDS011;63749;49.186;9.222;2023-10-09T01:15:07;19.17;;;8.75;;
75169;SDS011;63749;49.186;9.222;2023-10-09T01:17:32;16.73;;;8.43;;
75169;SDS011;63749;49.186;9.222;2023-10-09T01:20:01;15.85;;;8.13;;
75169;SDS011;63749;49.186;9.222;2023-10-09T01:22:40;16.48;;;8.05;;
75169;SDS011;63749;49.186;9.222;2023-10-09T01:25:08;16.45;;;8.05;;
75169;SDS011;63749;49.186;9.222;2023-10-09T01:27:33;15.33;;;7.83;;
75169;SDS011;63749;49.186;9.222;2023-10-09T01:29:59;17.63;;;7.63;;
75169;SDS011;63749;49.186;9.222;2023-10-09T01:32:25;18.70;;;8.15;;
75169;SDS011;63749;49.186;9.222;2023-10-09T01:34:51;15.57;;;7.75;;
75169;SDS011;63749;49.186;9.222;2023-10-09T01:37:20;16.83;;;7.93;;
75169;SDS011;63749;49.186;9.222;2023-10-09T01:39:55;18.83;;;7.70;;
75169;SDS011;63749;49.186;9.222;2023-10-09T01:42:24;19.13;;;7.63;;
75169;SDS011;63749;49.186;9.222;2023-10-09T01:44:57;17.55;;;7.63;;
75169;SDS011;63749;49.186;9.222;2023-10-09T01:47:48;15.25;;;8.32;;
75169;SDS011;63749;49.186;9.222;2023-10-09T01:50:17;17.08;;;7.78;;
75169;SDS011;63749;49.186;9.222;2023-10-09T01:53:00;19.20;;;7.57;;
75169;SDS011;63749;49.186;9.222;2023-10-09T01:55:27;18.43;;;7.80;;
75169;SDS011;63749;49.186;9.222;2023-10-09T01:58:06;17.00;;;7.47;;
75169;SDS011;63749;49.186;9.222;2023-10-09T02:00:49;16.25;;;7.97;;
75169;SDS011;63749;49.186;9.222;2023-10-09T02:03:22;20.52;;;7.90;;
75169;SDS011;63749;49.186;9.222;2023-10-09T02:06:01;17.63;;;7.70;;
75169;SDS011;63749;49.186;9.222;2023-10-09T02:08:29;19.50;;;7.60;;
75169;SDS011;63749;49.186;9.222;2023-10-09T02:10:55;15.90;;;7.38;;
75169;SDS011;63749;49.186;9.222;2023-10-09T02:13:22;14.63;;;7.20;;
75169;SDS011;63749;49.186;9.222;2023-10-09T02:15:56;17.63;;;7.93;;
75169;SDS011;63749;49.186;9.222;2023-10-09T02:18:38;17.42;;;7.35;;
75169;SDS011;63749;49.186;9.222;2023-10-09T02:21:18;19.17;;;7.40;;
75169;SDS011;63749;49.186;9.222;2023-10-09T02:23:53;18.23;;;7.72;;
75169;SDS011;63749;49.186;9.222;2023-10-09T02:26:22;17.57;;;7.40;;
75169;SDS011;63749;49.186;9.222;2023-10-09T02:29:00;15.75;;;7.70;;
75169;SDS011;63749;49.186;9.222;2023-10-09T02:31:30;16.73;;;7.72;;
75169;SDS011;63749;49.186;9.222;2023-10-09T02:34:05;16.80;;;7.72;;
75169;SDS011;63749;49.186;9.222;2023-10-09T02:36:35;16.30;;;8.20;;
75169;SDS011;63749;49.186;9.222;2023-10-09T02:39:08;17.53;;;7.30;;
75169;SDS011;63749;49.186;9.222;2023-10-09T02:41:51;14.23;;;7.15;;
75169;SDS011;63749;49.186;9.222;2023-10-09T02:44:21;19.85;;;7.40;;
75169;SDS011;63749;49.186;9.222;2023-10-09T02:46:50;16.30;;;7.13;;
75169;SDS011;63749;49.186;9.222;2023-10-09T02:49:15;17.23;;;7.27;;
75169;SDS011;63749;49.186;9.222;2023-10-09T02:51:41;16.97;;;7.20;;
75169;SDS011;63749;49.186;9.222;2023-10-09T02:54:12;17.40;;;7.10;;
75169;SDS011;63749;49.186;9.222;2023-10-09T02:56:52;14.23;;;6.75;;
75169;SDS011;63749;49.186;9.222;2023-10-09T02:59:22;14.55;;;6.88;;
75169;SDS011;63749;49.186;9.222;2023-10-09T03:01:48;18.80;;;7.10;;
75169;SDS011;63749;49.186;9.222;2023-10-09T03:04:14;16.53;;;6.93;;
75169;SDS011;63749;49.186;9.222;2023-10-09T03:06:40;15.65;;;7.07;;
75169;SDS011;63749;49.186;9.222;2023-10-09T03:09:15;17.27;;;6.85;;
75169;SDS011;63749;49.186;9.222;2023-10-09T03:11:45;18.67;;;7.87;;
75169;SDS011;63749;49.186;9.222;2023-10-09T03:14:13;15.65;;;7.40;;
75169;SDS011;63749;49.186;9.222;2023-10-09T03:16:39;18.60;;;7.30;;
75169;SDS011;63749;49.186;9.222;2023-10-09T03:19:04;15.80;;;7.70;;
75169;SDS011;63749;49.186;9.222;2023-10-09T03:21:29;16.57;;;7.50;;
75169;SDS011;63749;49.186;9.222;2023-10-09T03:23:55;17.50;;;7.80;;
75169;SDS011;63749;49.186;9.222;2023-10-09T03:26:21;20.90;;;7.57;;
75169;SDS011;63749;49.186;9.222;2023-10-09T03:28:50;19.73;;;8.50;;
75169;SDS011;63749;49.186;9.222;2023-10-09T03:31:17;18.95;;;7.90;;
75169;SDS011;63749;49.186;9.222;2023-10-09T03:33:44;19.80;;;8.07;;
75169;SDS011;63749;49.186;9.222;2023-10-09T03:36:09;19.93;;;7.90;;
75169;SDS011;63749;49.186;9.222;2023-10-09T03:38:35;15.60;;;7.37;;
75169;SDS011;63749;49.186;9.222;2023-10-09T03:41:04;17.23;;;7.82;;
75169;SDS011;63749;49.186;9.222;2023-10-09T03:43:34;18.23;;;7.78;;
75169;SDS011;63749;49.186;9.222;2023-10-09T03:46:05;17.52;;;8.50;;
75169;SDS011;63749;49.186;9.222;2023-10-09T03:48:49;18.90;;;8.33;;
75169;SDS011;63749;49.186;9.222;2023-10-09T03:51:15;14.68;;;7.50;;
75169;SDS011;63749;49.186;9.222;2023-10-09T03:53:46;17.08;;;7.40;;
75169;SDS011;63749;49.186;9.222;2023-10-09T03:56:12;14.15;;;7.45;;
75169;SDS011;63749;49.186;9.222;2023-10-09T03:58:40;15.45;;;7.20;;
75169;SDS011;63749;49.186;9.222;2023-10-09T04:01:10;14.07;;;7.20;;
75169;SDS011;63749;49.186;9.222;2023-10-09T04:03:47;17.02;;;7.63;;
75169;SDS011;63749;49.186;9.222;2023-10-09T04:06:13;20.20;;;8.00;;
75169;SDS011;63749;49.186;9.222;2023-10-09T04:08:40;15.98;;;7.57;;
75169;SDS011;63749;49.186;9.222;2023-10-09T04:11:12;22.00;;;8.10;;
75169;SDS011;63749;49.186;9.222;2023-10-09T04:13:44;16.58;;;7.35;;
75169;SDS011;63749;49.186;9.222;2023-10-09T04:16:14;15.52;;;7.78;;
75169;SDS011;63749;49.186;9.222;2023-10-09T04:18:59;16.38;;;7.60;;
75169;SDS011;63749;49.186;9.222;2023-10-09T04:21:35;18.23;;;7.78;;
75169;SDS011;63749;49.186;9.222;2023-10-09T04:24:04;21.40;;;7.77;;
75169;SDS011;63749;49.186;9.222;2023-10-09T04:26:37;17.48;;;7.55;;
75169;SDS011;63749;49.186;9.222;2023-10-09T04:29:16;15.38;;;7.57;;
75169;SDS011;63749;49.186;9.222;2023-10-09T04:32:03;16.13;;;7.45;;
75169;SDS011;63749;49.186;9.222;2023-10-09T04:34:32;16.80;;;7.85;;
75169;SDS011;63749;49.186;9.222;2023-10-09T04:37:02;18.50;;;7.80;;
75169;SDS011;63749;49.186;9.222;2023-10-09T04:39:43;18.77;;;7.60;;
75169;SDS011;63749;49.186;9.222;2023-10-09T04:42:12;22.83;;;8.32;;
75169;SDS011;63749;49.186;9.222;2023-10-09T04:44:44;16.50;;;8.43;;
75169;SDS011;63749;49.186;9.222;2023-10-09T04:47:28;27.20;;;8.50;;
75169;SDS011;63749;49.186;9.222;2023-10-09T04:50:14;27.43;;;8.47;;
75169;SDS011;63749;49.186;9.222;2023-10-09T04:53:00;24.65;;;8.23;;
75169;SDS011;63749;49.186;9.222;2023-10-09T04:55:43;25.60;;;8.80;;
75169;SDS011;63749;49.186;9.222;2023-10-09T04:58:19;20.80;;;8.27;;
75169;SDS011;63749;49.186;9.222;2023-10-09T05:00:51;19.52;;;8.50;;
75169;SDS011;63749;49.186;9.222;2023-10-09T05:03:23;25.23;;;8.27;;
75169;SDS011;63749;49.186;9.222;2023-10-09T05:06:08;23.10;;;8.10;;
75169;SDS011;63749;49.186;9.222;2023-10-09T05:08:47;20.77;;;8.10;;
75169;SDS011;63749;49.186;9.222;2023-10-09T05:11:13;19.80;;;7.63;;
75169;SDS011;63749;49.186;9.222;2023-10-09T05:13:58;19.20;;;7.85;;
75169;SDS011;63749;49.186;9.222;2023-10-09T05:16:36;16.50;;;7.30;;
75169;SDS011;63749;49.186;9.222;2023-10-09T05:19:03;19.73;;;7.18;;
75169;SDS011;63749;49.186;9.222;2023-10-09T05:21:35;19.25;;;7.32;;
75169;SDS011;63749;49.186;9.222;2023-10-09T05:24:10;16.75;;;7.32;;
75169;SDS011;63749;49.186;9.222;2023-10-09T05:26:43;14.80;;;6.93;;
75169;SDS011;63749;49.186;9.222;2023-10-09T05:29:15;17.07;;;7.20;;
75169;SDS011;63749;49.186;9.222;2023-10-09T05:31:54;18.42;;;7.05;;
75169;SDS011;63749;49.186;9.222;2023-10-09T05:34:28;17.95;;;6.90;;
75169;SDS011;63749;49.186;9.222;2023-10-09T05:37:20;18.25;;;7.85;;
75169;SDS011;63749;49.186;9.222;2023-10-09T05:39:57;17.83;;;7.60;;
75169;SDS011;63749;49.186;9.222;2023-10-09T05:42:30;21.50;;;8.03;;
75169;SDS011;63749;49.186;9.222;2023-10-09T05:45:02;20.95;;;7.95;;
75169;SDS011;63749;49.186;9.222;2023-10-09T05:47:48;22.33;;;8.23;;
75169;SDS011;63749;49.186;9.222;2023-10-09T05:50:31;17.92;;;8.05;;
75169;SDS011;63749;49.186;9.222;2023-10-09T05:52:59;18.02;;;8.25;;
75169;SDS011;63749;49.186;9.222;2023-10-09T05:55:42;20.03;;;9.00;;
75169;SDS011;63749;49.186;9.222;2023-10-09T05:58:26;18.85;;;8.23;;
75169;SDS011;63749;49.186;9.222;2023-10-09T06:01:10;18.90;;;7.75;;
75169;SDS011;63749;49.186;9.222;2023-10-09T06:04:04;19.52;;;6.82;;
75169;SDS011;63749;49.186;9.222;2023-10-09T06:06:40;18.50;;;7.78;;
75169;SDS011;63749;49.186;9.222;2023-10-09T06:09:21;21.93;;;8.07;;
75169;SDS011;63749;49.186;9.222;2023-10-09T06:11:48;18.67;;;8.43;;
75169;SDS011;63749;49.186;9.222;2023-10-09T06:14:18;18.05;;;7.90;;
75169;SDS011;63749;49.186;9.222;2023-10-09T06:16:50;18.53;;;8.20;;
75169;SDS011;63749;49.186;9.222;2023-10-09T06:19:23;17.05;;;7.80;;
75169;SDS011;63749;49.186;9.222;2023-10-09T06:21:59;19.02;;;9.20;;
75169;SDS011;63749;49.186;9.222;2023-10-09T06:24:37;16.05;;;8.05;;
75169;SDS011;63749;49.186;9.222;2023-10-09T06:27:10;18.88;;;8.05;;
75169;SDS011;63749;49.186;9.222;2023-10-09T06:29:37;21.67;;;7.87;;
75169;SDS011;63749;49.186;9.222;2023-10-09T06:32:15;18.17;;;7.45;;
75169;SDS011;63749;49.186;9.222;2023-10-09T06:34:45;19.90;;;7.57;;
75169;SDS011;63749;49.186;9.222;2023-10-09T06:37:22;18.70;;;7.72;;
75169;SDS011;63749;49.186;9.222;2023-10-09T06:39:50;21.45;;;7.35;;
75169;SDS011;63749;49.186;9.222;2023-10-09T06:42:20;21.03;;;7.50;;
75169;SDS011;63749;49.186;9.222;2023-10-09T06:47:29;23.85;;;8.00;;
75169;SDS011;63749;49.186;9.222;2023-10-09T06:50:01;21.90;;;7.38;;
75169;SDS011;63749;49.186;9.222;2023-10-09T06:52:45;21.75;;;7.00;;
75169;SDS011;63749;49.186;9.222;2023-10-09T06:55:44;24.30;;;7.37;;
75169;SDS011;63749;49.186;9.222;2023-10-09T06:58:20;23.52;;;7.30;;
75169;SDS011;63749;49.186;9.222;2023-10-09T07:00:52;21.88;;;6.80;;
75169;SDS011;63749;49.186;9.222;2023-10-09T07:03:27;24.30;;;6.50;;
75169;SDS011;63749;49.186;9.222;2023-10-09T07:06:10;23.20;;;6.55;;
75169;SDS011;63749;49.186;9.222;2023-10-09T07:08:51;21.97;;;6.87;;
75169;SDS011;63749;49.186;9.222;2023-10-09T07:11:44;18.83;;;6.95;;
75169;SDS011;63749;49.186;9.222;2023-10-09T07:16:59;18.52;;;6.72;;
75169;SDS011;63749;49.186;9.222;2023-10-09T07:19:41;37.22;;;14.82;;
75169;SDS011;63749;49.186;9.222;2023-10-09T07:22:10;28.07;;;9.43;;
75169;SDS011;63749;49.186;9.222;2023-10-09T07:24:45;33.00;;;8.10;;
75169;SDS011;63749;49.186;9.222;2023-10-09T07:27:29;22.20;;;8.25;;
75169;SDS011;63749;49.186;9.222;2023-10-09T07:30:24;27.40;;;7.93;;
75169;SDS011;63749;49.186;9.222;2023-10-09T07:32:56;26.50;;;7.40;;
75169;SDS011;63749;49.186;9.222;2023-10-09T07:35:34;24.97;;;7.00;;
75169;SDS011;63749;49.186;9.222;2023-10-09T07:38:10;17.58;;;6.40;;
75169;SDS011;63749;49.186;9.222;2023-10-09T07:40:40;25.92;;;6.72;;
75169;SDS011;63749;49.186;9.222;2023-10-09T07:43:28;24.80;;;6.70;;
75169;SDS011;63749;49.186;9.222;2023-10-09T07:46:01;19.48;;;6.63;;
75169;SDS011;63749;49.186;9.222;2023-10-09T07:48:30;25.33;;;7.70;;
75169;SDS011;63749;49.186;9.222;2023-10-09T07:51:17;24.23;;;6.82;;
75169;SDS011;63749;49.186;9.222;2023-10-09T07:53:48;31.92;;;6.82;;
75169;SDS011;63749;49.186;9.222;2023-10-09T07:56:15;23.83;;;6.78;;
75169;SDS011;63749;49.186;9.222;2023-10-09T07:58:45;19.17;;;7.60;;
75169;SDS011;63749;49.186;9.222;2023-10-09T08:01:12;25.03;;;7.30;;
75169;SDS011;63749;49.186;9.222;2023-10-09T08:03:46;24.67;;;7.00;;
75169;SDS011;63749;49.186;9.222;2023-10-09T08:06:12;25.15;;;6.97;;
75169;SDS011;63749;49.186;9.222;2023-10-09T08:09:10;33.53;;;9.38;;
75169;SDS011;63749;49.186;9.222;2023-10-09T08:11:39;27.48;;;7.30;;
75169;SDS011;63749;49.186;9.222;2023-10-09T08:14:08;21.40;;;7.00;;
75169;SDS011;63749;49.186;9.222;2023-10-09T08:16:53;19.77;;;6.75;;
75169;SDS011;63749;49.186;9.222;2023-10-09T08:19:36;30.73;;;6.93;;
75169;SDS011;63749;49.186;9.222;2023-10-09T08:22:17;24.75;;;7.28;;
75169;SDS011;63749;49.186;9.222;2023-10-09T08:25:02;24.33;;;6.70;;
75169;SDS011;63749;49.186;9.222;2023-10-09T08:27:29;25.93;;;6.97;;
75169;SDS011;63749;49.186;9.222;2023-10-09T08:29:55;23.27;;;6.80;;
75169;SDS011;63749;49.186;9.222;2023-10-09T08:32:45;25.73;;;6.72;;
75169;SDS011;63749;49.186;9.222;2023-10-09T08:35:51;27.27;;;6.83;;
75169;SDS011;63749;49.186;9.222;2023-10-09T08:38:20;27.45;;;6.43;;
75169;SDS011;63749;49.186;9.222;2023-10-09T08:40:49;25.02;;;6.60;;
75169;SDS011;63749;49.186;9.222;2023-10-09T08:43:16;23.95;;;5.95;;
75169;SDS011;63749;49.186;9.222;2023-10-09T08:45:46;31.40;;;6.50;;
75169;SDS011;63749;49.186;9.222;2023-10-09T08:48:13;23.17;;;6.07;;
75169;SDS011;63749;49.186;9.222;2023-10-09T08:50:43;27.60;;;5.95;;
75169;SDS011;63749;49.186;9.222;2023-10-09T08:53:13;29.55;;;6.38;;
75169;SDS011;63749;49.186;9.222;2023-10-09T08:55:39;22.75;;;5.97;;
75169;SDS011;63749;49.186;9.222;2023-10-09T08:58:06;27.30;;;5.70;;
75169;SDS011;63749;49.186;9.222;2023-10-09T09:00:55;23.90;;;5.67;;
75169;SDS011;63749;49.186;9.222;2023-10-09T09:03:21;30.38;;;6.97;;
75169;SDS011;63749;49.186;9.222;2023-10-09T09:05:56;27.33;;;6.77;;
75169;SDS011;63749;49.186;9.222;2023-10-09T09:08:26;28.15;;;5.75;;
75169;SDS011;63749;49.186;9.222;2023-10-09T09:13:47;24.60;;;5.40;;
75169;SDS011;63749;49.186;9.222;2023-10-09T09:16:22;25.58;;;5.28;;
75169;SDS011;63749;49.186;9.222;2023-10-09T09:21:37;39.53;;;6.75;;
75169;SDS011;63749;49.186;9.222;2023-10-09T09:24:06;33.22;;;6.10;;
75169;SDS011;63749;49.186;9.222;2023-10-09T09:26:45;33.38;;;5.82;;
75169;SDS011;63749;49.186;9.222;2023-10-09T09:29:14;20.87;;;5.30;;
75169;SDS011;63749;49.186;9.222;2023-10-09T09:31:53;23.33;;;5.22;;
75169;SDS011;63749;49.186;9.222;2023-10-09T09:34:19;26.25;;;5.63;;
75169;SDS011;63749;49.186;9.222;2023-10-09T09:36:51;31.02;;;5.25;;
75169;SDS011;63749;49.186;9.222;2023-10-09T09:39:24;25.83;;;5.60;;
75169;SDS011;63749;49.186;9.222;2023-10-09T09:41:55;29.63;;;5.28;;
75169;SDS011;63749;49.186;9.222;2023-10-09T09:44:22;27.38;;;5.93;;
75169;SDS011;63749;49.186;9.222;2023-10-09T09:46:51;36.03;;;5.68;;
75169;SDS011;63749;49.186;9.222;2023-10-09T09:49:20;24.45;;;5.28;;
75169;SDS011;63749;49.186;9.222;2023-10-09T09:51:47;29.70;;;5.77;;
75169;SDS011;63749;49.186;9.222;2023-10-09T09:54:16;29.95;;;5.15;;
75169;SDS011;63749;49.186;9.222;2023-10-09T09:56:44;29.08;;;4.25;;
75169;SDS011;63749;49.186;9.222;2023-10-09T09:59:17;22.88;;;4.43;;
75169;SDS011;63749;49.186;9.222;2023-10-09T10:01:52;19.63;;;3.72;;
75169;SDS011;63749;49.186;9.222;2023-10-09T10:04:26;28.80;;;4.00;;
75169;SDS011;63749;49.186;9.222;2023-10-09T10:06:55;24.70;;;4.38;;
75169;SDS011;63749;49.186;9.222;2023-10-09T10:09:35;25.77;;;4.28;;
75169;SDS011;63749;49.186;9.222;2023-10-09T10:12:07;26.48;;;4.65;;
75169;SDS011;63749;49.186;9.222;2023-10-09T10:14:52;20.70;;;4.00;;
75169;SDS011;63749;49.186;9.222;2023-10-09T10:17:22;23.97;;;4.30;;
75169;SDS011;63749;49.186;9.222;2023-10-09T10:22:25;29.00;;;4.53;;
75169;SDS011;63749;49.186;9.222;2023-10-09T10:24:55;29.10;;;4.70;;
75169;SDS011;63749;49.186;9.222;2023-10-09T10:27:27;28.17;;;4.60;;
75169;SDS011;63749;49.186;9.222;2023-10-09T10:30:30;27.17;;;5.40;;
75169;SDS011;63749;49.186;9.222;2023-10-09T10:32:55;34.88;;;9.60;;
75169;SDS011;63749;49.186;9.222;2023-10-09T10:35:45;25.17;;;6.60;;
75169;SDS011;63749;49.186;9.222;2023-10-09T10:38:30;25.55;;;5.88;;
75169;SDS011;63749;49.186;9.222;2023-10-09T10:41:11;30.08;;;5.85;;
75169;SDS011;63749;49.186;9.222;2023-10-09T10:43:37;23.90;;;5.95;;
75169;SDS011;63749;49.186;9.222;2023-10-09T10:46:16;29.55;;;5.50;;
75169;SDS011;63749;49.186;9.222;2023-10-09T10:48:48;24.60;;;5.00;;
75169;SDS011;63749;49.186;9.222;2023-10-09T10:51:14;23.88;;;5.07;;
75169;SDS011;63749;49.186;9.222;2023-10-09T10:53:50;29.63;;;5.30;;
75169;SDS011;63749;49.186;9.222;2023-10-09T10:56:25;37.00;;;5.07;;
75169;SDS011;63749;49.186;9.222;2023-10-09T10:59:02;25.63;;;5.18;;
75169;SDS011;63749;49.186;9.222;2023-10-09T11:01:31;27.08;;;4.60;;
75169;SDS011;63749;49.186;9.222;2023-10-09T11:04:19;30.80;;;5.18;;
75169;SDS011;63749;49.186;9.222;2023-10-09T11:06:55;20.20;;;3.90;;
75169;SDS011;63749;49.186;9.222;2023-10-09T11:09:49;21.23;;;4.13;;
75169;SDS011;63749;49.186;9.222;2023-10-09T11:12:32;20.70;;;4.40;;
75169;SDS011;63749;49.186;9.222;2023-10-09T11:15:09;22.58;;;4.63;;
75169;SDS011;63749;49.186;9.222;2023-10-09T11:18:00;17.92;;;4.10;;
75169;SDS011;63749;49.186;9.222;2023-10-09T11:20:33;23.40;;;4.33;;
75169;SDS011;63749;49.186;9.222;2023-10-09T11:22:59;29.77;;;4.47;;
75169;SDS011;63749;49.186;9.222;2023-10-09T11:25:38;24.13;;;4.15;;
75169;SDS011;63749;49.186;9.222;2023-10-09T11:28:18;21.05;;;4.40;;
75169;SDS011;63749;49.186;9.222;2023-10-09T11:30:55;21.23;;;4.70;;
75169;SDS011;63749;49.186;9.222;2023-10-09T11:33:41;22.50;;;4.40;;
75169;SDS011;63749;49.186;9.222;2023-10-09T11:36:14;23.25;;;4.07;;
75169;SDS011;63749;49.186;9.222;2023-10-09T11:38:40;16.73;;;3.70;;
75169;SDS011;63749;49.186;9.222;2023-10-09T11:41:16;19.40;;;3.90;;
75169;SDS011;63749;49.186;9.222;2023-10-09T11:43:50;19.70;;;3.75;;
75169;SDS011;63749;49.186;9.222;2023-10-09T11:46:16;19.43;;;3.87;;
75169;SDS011;63749;49.186;9.222;2023-10-09T11:49:18;16.15;;;3.70;;
75169;SDS011;63749;49.186;9.222;2023-10-09T11:51:46;24.35;;;3.58;;
75169;SDS011;63749;49.186;9.222;2023-10-09T11:54:33;17.20;;;3.50;;
75169;SDS011;63749;49.186;9.222;2023-10-09T11:57:00;18.30;;;4.00;;
75169;SDS011;63749;49.186;9.222;2023-10-09T11:59:27;16.23;;;3.47;;
75169;SDS011;63749;49.186;9.222;2023-10-09T12:02:06;20.95;;;4.13;;
75169;SDS011;63749;49.186;9.222;2023-10-09T12:04:36;20.05;;;4.30;;
75169;SDS011;63749;49.186;9.222;2023-10-09T12:07:02;22.63;;;4.50;;
75169;SDS011;63749;49.186;9.222;2023-10-09T12:09:34;21.77;;;4.40;;
75169;SDS011;63749;49.186;9.222;2023-10-09T12:12:01;24.38;;;4.40;;
75169;SDS011;63749;49.186;9.222;2023-10-09T12:14:28;23.30;;;4.20;;
75169;SDS011;63749;49.186;9.222;2023-10-09T12:16:58;24.27;;;4.80;;
75169;SDS011;63749;49.186;9.222;2023-10-09T12:19:37;26.95;;;4.80;;
75169;SDS011;63749;49.186;9.222;2023-10-09T12:22:04;18.40;;;4.25;;
75169;SDS011;63749;49.186;9.222;2023-10-09T12:24:31;22.80;;;4.20;;
75169;SDS011;63749;49.186;9.222;2023-10-09T12:26:58;22.20;;;3.92;;
75169;SDS011;63749;49.186;9.222;2023-10-09T12:29:24;17.07;;;3.97;;
75169;SDS011;63749;49.186;9.222;2023-10-09T12:31:49;16.00;;;3.55;;
75169;SDS011;63749;49.186;9.222;2023-10-09T12:34:23;17.27;;;3.97;;
75169;SDS011;63749;49.186;9.222;2023-10-09T12:36:51;20.50;;;3.70;;
75169;SDS011;63749;49.186;9.222;2023-10-09T12:39:20;20.25;;;3.60;;
75169;SDS011;63749;49.186;9.222;2023-10-09T12:41:49;18.80;;;4.32;;
75169;SDS011;63749;49.186;9.222;2023-10-09T12:44:18;20.90;;;3.80;;
75169;SDS011;63749;49.186;9.222;2023-10-09T12:46:44;15.25;;;3.88;;
75169;SDS011;63749;49.186;9.222;2023-10-09T12:49:17;19.30;;;3.83;;
75169;SDS011;63749;49.186;9.222;2023-10-09T12:51:50;19.77;;;4.40;;
75169;SDS011;63749;49.186;9.222;2023-10-09T12:54:16;15.82;;;3.95;;
75169;SDS011;63749;49.186;9.222;2023-10-09T12:56:42;12.07;;;3.80;;
75169;SDS011;63749;49.186;9.222;2023-10-09T12:59:07;19.13;;;4.07;;
75169;SDS011;63749;49.186;9.222;2023-10-09T13:01:39;18.02;;;4.10;;
75169;SDS011;63749;49.186;9.222;2023-10-09T13:04:08;19.25;;;4.30;;
75169;SDS011;63749;49.186;9.222;2023-10-09T13:06:40;19.57;;;4.53;;
75169;SDS011;63749;49.186;9.222;2023-10-09T13:09:09;19.92;;;4.20;;
75169;SDS011;63749;49.186;9.222;2023-10-09T13:11:35;16.92;;;4.63;;
75169;SDS011;63749;49.186;9.222;2023-10-09T13:14:02;13.38;;;4.20;;
75169;SDS011;63749;49.186;9.222;2023-10-09T13:16:36;12.75;;;4.30;;
75169;SDS011;63749;49.186;9.222;2023-10-09T13:19:02;16.50;;;4.20;;
75169;SDS011;63749;49.186;9.222;2023-10-09T13:21:34;20.45;;;4.28;;
75169;SDS011;63749;49.186;9.222;2023-10-09T13:24:04;16.05;;;4.05;;
75169;SDS011;63749;49.186;9.222;2023-10-09T13:26:29;19.77;;;3.73;;
75169;SDS011;63749;49.186;9.222;2023-10-09T13:28:58;16.60;;;3.90;;
75169;SDS011;63749;49.186;9.222;2023-10-09T13:31:24;17.48;;;4.10;;
75169;SDS011;63749;49.186;9.222;2023-10-09T13:33:51;24.77;;;4.45;;
75169;SDS011;63749;49.186;9.222;2023-10-09T13:36:20;16.08;;;4.78;;
75169;SDS011;63749;49.186;9.222;2023-10-09T13:38:55;16.20;;;4.20;;
75169;SDS011;63749;49.186;9.222;2023-10-09T13:41:21;13.85;;;4.50;;
75169;SDS011;63749;49.186;9.222;2023-10-09T13:43:47;19.90;;;4.60;;
75169;SDS011;63749;49.186;9.222;2023-10-09T13:46:12;21.83;;;4.40;;
75169;SDS011;63749;49.186;9.222;2023-10-09T13:48:41;15.60;;;4.90;;
75169;SDS011;63749;49.186;9.222;2023-10-09T13:51:08;12.90;;;4.15;;
75169;SDS011;63749;49.186;9.222;2023-10-09T13:53:39;15.57;;;4.40;;
75169;SDS011;63749;49.186;9.222;2023-10-09T13:56:13;17.83;;;4.05;;
75169;SDS011;63749;49.186;9.222;2023-10-09T13:58:43;12.98;;;4.40;;
75169;SDS011;63749;49.186;9.222;2023-10-09T14:01:19;19.95;;;4.78;;
75169;SDS011;63749;49.186;9.222;2023-10-09T14:03:58;16.77;;;4.15;;
75169;SDS011;63749;49.186;9.222;2023-10-09T14:06:25;20.77;;;4.17;;
75169;SDS011;63749;49.186;9.222;2023-10-09T14:08:58;15.98;;;4.50;;
75169;SDS011;63749;49.186;9.222;2023-10-09T14:11:33;12.60;;;4.15;;
75169;SDS011;63749;49.186;9.222;2023-10-09T14:14:09;14.50;;;4.57;;
75169;SDS011;63749;49.186;9.222;2023-10-09T14:16:38;18.73;;;4.80;;
75169;SDS011;63749;49.186;9.222;2023-10-09T14:19:08;19.73;;;4.80;;
75169;SDS011;63749;49.186;9.222;2023-10-09T14:21:38;17.83;;;4.57;;
75169;SDS011;63749;49.186;9.222;2023-10-09T14:24:05;15.68;;;4.15;;
75169;SDS011;63749;49.186;9.222;2023-10-09T14:26:40;16.70;;;4.75;;
75169;SDS011;63749;49.186;9.222;2023-10-09T14:29:06;23.40;;;4.83;;
75169;SDS011;63749;49.186;9.222;2023-10-09T14:31:31;15.00;;;4.45;;
75169;SDS011;63749;49.186;9.222;2023-10-09T14:34:00;16.13;;;4.45;;
75169;SDS011;63749;49.186;9.222;2023-10-09T14:36:27;14.13;;;4.40;;
75169;SDS011;63749;49.186;9.222;2023-10-09T14:38:58;15.18;;;4.30;;
75169;SDS011;63749;49.186;9.222;2023-10-09T14:41:25;20.25;;;4.50;;
75169;SDS011;63749;49.186;9.222;2023-10-09T14:43:52;18.58;;;4.32;;
75169;SDS011;63749;49.186;9.222;2023-10-09T14:46:18;16.97;;;4.17;;
75169;SDS011;63749;49.186;9.222;2023-10-09T14:48:50;17.52;;;4.40;;
75169;SDS011;63749;49.186;9.222;2023-10-09T14:51:18;14.88;;;4.20;;
75169;SDS011;63749;49.186;9.222;2023-10-09T14:53:51;14.00;;;4.32;;
75169;SDS011;63749;49.186;9.222;2023-10-09T14:56:18;14.67;;;4.40;;
75169;SDS011;63749;49.186;9.222;2023-10-09T14:58:53;19.00;;;4.47;;
75169;SDS011;63749;49.186;9.222;2023-10-09T15:01:21;15.60;;;4.70;;
75169;SDS011;63749;49.186;9.222;2023-10-09T15:03:49;18.08;;;4.60;;
75169;SDS011;63749;49.186;9.222;2023-10-09T15:06:17;13.27;;;4.55;;
75169;SDS011;63749;49.186;9.222;2023-10-09T15:08:43;24.40;;;4.80;;
75169;SDS011;63749;49.186;9.222;2023-10-09T15:11:09;17.50;;;4.15;;
75169;SDS011;63749;49.186;9.222;2023-10-09T15:13:34;17.77;;;4.80;;
75169;SDS011;63749;49.186;9.222;2023-10-09T15:16:00;16.10;;;4.73;;
75169;SDS011;63749;49.186;9.222;2023-10-09T15:18:28;18.58;;;4.43;;
75169;SDS011;63749;49.186;9.222;2023-10-09T15:20:57;21.58;;;4.63;;